Heute – Wetterdaten im Stunden Intervall

Wetterdaten stündlich vom aktuellen Tag
Datum Aussentemperatur Luftdruck Luftfeuchtigkeit Windstärke Windböe Regen
20.05.18, 19:05 24.5 °C 1017.9 hPa 46 % 3.2 km/h 11.9 km/h 0.0 mm
20.05.18, 18:05 23.1 °C 1018.4 hPa 50 % 1.8 km/h 5.0 km/h 0.0 mm
20.05.18, 17:05 21.8 °C 1019.0 hPa 61 % 0.0 km/h 5.0 km/h 0.0 mm
20.05.18, 16:05 25.9 °C 1019.7 hPa 42 % 3.2 km/h 10.1 km/h 0.0 mm
20.05.18, 15:05 25.9 °C 1020.5 hPa 43 % 6.8 km/h 8.6 km/h 0.0 mm
20.05.18, 14:05 24.6 °C 1021.3 hPa 46 % 3.2 km/h 6.8 km/h 0.0 mm
20.05.18, 13:05 23.3 °C 1022.0 hPa 47 % 1.8 km/h 11.9 km/h 0.0 mm
20.05.18, 12:05 21.4 °C 1022.4 hPa 51 % 5.0 km/h 5.0 km/h 0.0 mm
20.05.18, 11:05 19.7 °C 1022.8 hPa 56 % 0.0 km/h 5.0 km/h 0.0 mm
20.05.18, 10:05 17.5 °C 1023.0 hPa 62 % 1.8 km/h 5.0 km/h 0.0 mm
20.05.18, 09:05 15.2 °C 1023.2 hPa 68 % 0.0 km/h 1.8 km/h 0.0 mm
20.05.18, 08:05 11.4 °C 1022.9 hPa 86 % 0.0 km/h 0.0 km/h 0.0 mm
20.05.18, 07:05 8.5 °C 1022.6 hPa 93 % 0.0 km/h 0.0 km/h 0.0 mm
20.05.18, 06:00 7.6 °C 1022.4 hPa 91 % 0.0 km/h 0.0 km/h 0.0 mm
20.05.18, 05:05 8.4 °C 1022.3 hPa 91 % 0.0 km/h 1.8 km/h 0.0 mm
20.05.18, 04:05 8.9 °C 1022.4 hPa 89 % 0.0 km/h 0.0 km/h 0.0 mm
20.05.18, 03:05 9.4 °C 1022.4 hPa 89 % 0.0 km/h 0.0 km/h 0.0 mm
20.05.18, 02:05 9.9 °C 1022.9 hPa 87 % 0.0 km/h 1.8 km/h 0.0 mm
20.05.18, 01:05 10.5 °C 1022.8 hPa 84 % 0.0 km/h 0.0 km/h 0.0 mm
20.05.18, 00:00 11.6 °C 1022.8 hPa 79 % 0.0 km/h 1.8 km/h 0.0 mm